createdAt,value
2022-11-21T00:01:21.431Z,3.80
2022-11-21T00:03:49.757Z,3.80
2022-11-21T00:06:18.879Z,3.70
2022-11-21T00:08:48.707Z,3.70
2022-11-21T00:11:17.362Z,3.70
2022-11-21T00:13:45.941Z,3.70
2022-11-21T00:16:16.199Z,3.70
2022-11-21T00:18:45.103Z,3.70
2022-11-21T00:21:19.294Z,3.80
2022-11-21T00:23:53.558Z,3.80
2022-11-21T00:26:21.905Z,3.90
2022-11-21T00:28:50.275Z,3.90
2022-11-21T00:31:22.428Z,4.00
2022-11-21T00:33:50.730Z,3.90
2022-11-21T00:36:18.859Z,3.90
2022-11-21T00:38:48.570Z,3.90
2022-11-21T00:41:16.773Z,4.00
2022-11-21T00:43:44.893Z,4.00
2022-11-21T00:46:13.205Z,4.00
2022-11-21T00:48:41.359Z,4.00
2022-11-21T00:51:09.637Z,4.00
2022-11-21T00:53:37.779Z,4.00
2022-11-21T00:56:07.574Z,4.00
2022-11-21T00:58:36.245Z,4.00
2022-11-21T01:01:06.840Z,4.00
2022-11-21T01:03:38.260Z,4.00
2022-11-21T01:06:08.927Z,4.00
2022-11-21T01:08:38.878Z,4.00
2022-11-21T01:11:11.080Z,3.90
2022-11-21T01:13:39.558Z,3.90
2022-11-21T01:16:09.194Z,3.90
2022-11-21T01:18:38.261Z,3.80
2022-11-21T01:21:08.793Z,3.80
2022-11-21T01:23:36.962Z,3.80
2022-11-21T01:26:08.633Z,3.70
2022-11-21T01:28:36.809Z,3.60
2022-11-21T01:31:06.442Z,3.60
2022-11-21T01:33:34.650Z,3.60
2022-11-21T01:36:13.792Z,3.60
2022-11-21T01:38:43.223Z,3.60
2022-11-21T01:41:14.969Z,3.60
2022-11-21T01:43:43.364Z,3.60
2022-11-21T01:46:14.809Z,3.70
2022-11-21T01:48:47.385Z,3.80
2022-11-21T01:51:22.301Z,3.90
2022-11-21T01:53:56.494Z,3.90
2022-11-21T01:56:27.084Z,3.80
2022-11-21T01:59:00.570Z,3.90
2022-11-21T02:01:29.760Z,4.00
2022-11-21T02:03:59.600Z,4.00
2022-11-21T02:06:28.652Z,4.00
2022-11-21T02:08:58.937Z,4.10
2022-11-21T02:11:33.729Z,4.10
2022-11-21T02:14:02.306Z,4.10
2022-11-21T02:16:30.838Z,4.20
2022-11-21T02:18:59.061Z,4.10
2022-11-21T02:21:36.199Z,4.10
2022-11-21T02:24:10.088Z,4.10
2022-11-21T02:26:57.043Z,4.10
2022-11-21T02:29:43.116Z,4.00
2022-11-21T02:32:30.876Z,4.00
2022-11-21T02:35:30.299Z,3.90
2022-11-21T02:38:17.931Z,3.80
2022-11-21T02:41:05.986Z,3.80
2022-11-21T02:43:47.429Z,3.80
2022-11-21T02:46:29.146Z,3.70
2022-11-21T02:49:09.184Z,3.60
2022-11-21T02:51:50.833Z,3.50
2022-11-21T02:54:26.773Z,3.50
2022-11-21T02:57:04.399Z,3.40
2022-11-21T02:59:48.410Z,3.40
2022-11-21T03:02:22.020Z,3.40
2022-11-21T03:04:55.132Z,3.30
2022-11-21T03:10:21.333Z,3.20
2022-11-21T03:13:01.744Z,3.20
2022-11-21T03:15:39.122Z,3.20
2022-11-21T03:21:04.846Z,3.20
2022-11-21T03:23:48.242Z,3.30
2022-11-21T03:26:21.767Z,3.30
2022-11-21T03:28:57.465Z,3.30
2022-11-21T03:32:00.301Z,3.40
2022-11-21T03:34:51.555Z,3.50
2022-11-21T03:37:30.401Z,3.50
2022-11-21T03:40:10.323Z,3.60
2022-11-21T03:42:41.308Z,3.70
2022-11-21T03:45:19.303Z,3.80
2022-11-21T03:48:06.462Z,3.80
2022-11-21T03:50:58.815Z,3.90
2022-11-21T03:53:58.592Z,4.00
2022-11-21T03:56:45.131Z,4.10
2022-11-21T03:59:20.111Z,4.10
2022-11-21T04:02:13.181Z,4.20
2022-11-21T04:05:09.543Z,4.20
2022-11-21T04:07:40.738Z,4.30
2022-11-21T04:10:42.061Z,4.40
2022-11-21T04:13:39.027Z,4.60
2022-11-21T04:16:15.778Z,4.70
2022-11-21T04:19:00.847Z,4.90
2022-11-21T04:22:26.759Z,5.00
2022-11-21T04:25:10.589Z,5.10
2022-11-21T04:27:47.855Z,5.20
2022-11-21T04:30:32.739Z,5.30
2022-11-21T04:33:29.937Z,5.40
2022-11-21T04:36:16.728Z,5.40
2022-11-21T04:38:57.858Z,5.40
2022-11-21T04:41:39.549Z,5.50
2022-11-21T04:44:21.714Z,5.40
2022-11-21T04:47:05.524Z,5.30
2022-11-21T04:49:49.138Z,5.20
2022-11-21T04:55:31.657Z,5.00
2022-11-21T04:58:36.417Z,4.90
2022-11-21T05:01:25.838Z,4.90
2022-11-21T05:04:02.405Z,4.90
2022-11-21T05:06:49.601Z,4.80
2022-11-21T05:12:59.607Z,4.80
2022-11-21T05:15:48.975Z,4.90
2022-11-21T05:18:40.879Z,4.90
2022-11-21T05:21:17.174Z,4.90
2022-11-21T05:24:02.619Z,4.90
2022-11-21T05:26:43.660Z,4.90
2022-11-21T05:29:49.074Z,4.90
2022-11-21T05:32:41.495Z,4.90
2022-11-21T05:35:23.299Z,4.90
2022-11-21T05:38:31.740Z,4.90
2022-11-21T05:41:08.914Z,4.90
2022-11-21T05:43:53.492Z,4.90
2022-11-21T05:46:49.833Z,4.90
2022-11-21T05:49:39.351Z,5.00
2022-11-21T05:52:36.687Z,5.00
2022-11-21T05:55:35.611Z,4.90
2022-11-21T05:58:13.347Z,5.00
2022-11-21T06:04:09.142Z,5.00
2022-11-21T06:06:59.433Z,5.00
2022-11-21T06:09:38.827Z,5.00
2022-11-21T06:12:29.839Z,5.00
2022-11-21T06:15:10.603Z,5.00
2022-11-21T06:17:51.127Z,5.00
2022-11-21T06:20:34.178Z,5.00
2022-11-21T06:23:14.476Z,5.10
2022-11-21T06:25:53.885Z,5.10
2022-11-21T06:31:22.286Z,5.10
2022-11-21T06:37:57.976Z,5.20
2022-11-21T06:40:48.996Z,5.30
2022-11-21T06:43:27.855Z,5.40
2022-11-21T06:46:06.363Z,5.40
2022-11-21T06:48:55.133Z,5.50
2022-11-21T06:51:53.173Z,5.50
2022-11-21T06:57:43.769Z,5.50
2022-11-21T07:00:29.651Z,5.50
2022-11-21T07:03:33.105Z,5.50
2022-11-21T07:06:20.884Z,5.50
2022-11-21T07:12:47.913Z,5.60
2022-11-21T07:15:51.437Z,5.70
2022-11-21T07:18:30.389Z,5.70
2022-11-21T07:21:00.763Z,5.80
2022-11-21T07:23:44.667Z,5.80
2022-11-21T07:32:49.097Z,5.90
2022-11-21T07:35:22.447Z,5.90
2022-11-21T07:38:19.133Z,6.00
2022-11-21T07:41:08.442Z,6.00
2022-11-21T07:44:24.661Z,6.00
2022-11-21T07:47:16.064Z,6.10
2022-11-21T07:50:49.260Z,6.10
2022-11-21T07:53:41.267Z,6.20
2022-11-21T07:56:46.389Z,6.20
2022-11-21T07:59:40.898Z,6.30
2022-11-21T08:05:28.699Z,6.40
2022-11-21T08:08:38.325Z,6.40
2022-11-21T08:11:18.864Z,6.50
2022-11-21T08:14:04.399Z,6.50
2022-11-21T08:16:34.049Z,6.60
2022-11-21T08:19:04.182Z,6.60
2022-11-21T08:21:32.676Z,6.70
2022-11-21T08:24:01.033Z,6.70
2022-11-21T08:26:30.746Z,6.80
2022-11-21T08:29:00.136Z,6.90
2022-11-21T08:31:28.532Z,7.00
2022-11-21T08:33:58.073Z,7.00
2022-11-21T08:36:26.317Z,7.20
2022-11-21T08:38:54.452Z,7.20
2022-11-21T08:41:40.642Z,7.30
2022-11-21T08:44:14.052Z,7.40
2022-11-21T08:46:43.061Z,7.40
2022-11-21T08:49:11.262Z,7.50
2022-11-21T08:51:39.703Z,7.60
2022-11-21T08:54:11.751Z,7.60
2022-11-21T08:56:42.272Z,7.60
2022-11-21T08:59:14.950Z,7.70
2022-11-21T09:01:43.209Z,7.70
2022-11-21T09:04:12.035Z,7.70
2022-11-21T09:06:40.403Z,7.70
2022-11-21T09:09:09.159Z,7.80
2022-11-21T09:11:37.942Z,7.80
2022-11-21T09:14:25.717Z,7.90
2022-11-21T09:17:12.789Z,7.90
2022-11-21T09:19:41.161Z,8.00
2022-11-21T09:22:09.466Z,8.10
2022-11-21T09:24:37.705Z,8.20
2022-11-21T09:27:06.022Z,8.20
2022-11-21T09:29:34.283Z,8.30
2022-11-21T09:32:03.960Z,8.40
2022-11-21T09:34:32.897Z,8.50
2022-11-21T09:37:01.133Z,8.50
2022-11-21T09:39:31.403Z,8.60
2022-11-21T09:42:11.314Z,8.70
2022-11-21T09:45:01.547Z,8.80
2022-11-21T09:47:39.170Z,8.90
2022-11-21T09:50:26.968Z,8.90
2022-11-21T09:53:00.500Z,9.00
2022-11-21T09:55:40.641Z,9.10
2022-11-21T09:58:23.335Z,9.20
2022-11-21T10:00:54.304Z,9.40
2022-11-21T10:03:30.411Z,9.40
2022-11-21T10:06:04.407Z,9.50
2022-11-21T10:08:43.161Z,9.60
2022-11-21T10:11:20.452Z,9.80
2022-11-21T10:14:04.210Z,10.00
2022-11-21T10:16:42.323Z,10.20
2022-11-21T10:19:43.639Z,10.10
2022-11-21T10:22:27.569Z,10.00
2022-11-21T10:25:00.886Z,10.10
2022-11-21T10:27:36.378Z,10.10
2022-11-21T10:30:08.476Z,10.20
2022-11-21T10:32:40.607Z,10.10
2022-11-21T10:35:17.454Z,10.00
2022-11-21T10:37:51.957Z,9.80
2022-11-21T10:40:34.613Z,9.70
2022-11-21T10:43:30.007Z,9.80
2022-11-21T10:46:01.368Z,9.80
2022-11-21T10:48:31.200Z,9.70
2022-11-21T10:51:14.219Z,9.60
2022-11-21T10:54:03.360Z,9.50
2022-11-21T10:56:37.347Z,9.40
2022-11-21T10:59:25.636Z,9.30
2022-11-21T11:01:58.671Z,9.10
2022-11-21T11:04:33.223Z,9.00
2022-11-21T11:07:24.363Z,8.90
2022-11-21T11:09:53.739Z,8.80
2022-11-21T11:12:47.195Z,8.80
2022-11-21T11:15:20.438Z,8.80
2022-11-21T11:17:53.318Z,8.80
2022-11-21T11:20:34.733Z,8.70
2022-11-21T11:23:17.845Z,8.70
2022-11-21T11:25:51.228Z,8.60
2022-11-21T11:28:20.522Z,8.60
2022-11-21T11:30:50.438Z,8.60
2022-11-21T11:33:38.285Z,8.50
2022-11-21T11:36:17.880Z,8.50
2022-11-21T11:38:53.665Z,8.20
2022-11-21T11:42:02.341Z,8.10
2022-11-21T11:44:56.283Z,8.10
2022-11-21T11:47:32.504Z,8.10
2022-11-21T11:50:15.095Z,8.20
2022-11-21T11:52:58.608Z,8.20
2022-11-21T11:55:37.902Z,8.20
2022-11-21T11:58:15.272Z,8.10
2022-11-21T12:00:52.622Z,8.10
2022-11-21T12:03:25.287Z,8.10
2022-11-21T12:06:04.684Z,8.10
2022-11-21T12:08:50.615Z,8.20
2022-11-21T12:11:48.677Z,8.30
2022-11-21T12:14:51.372Z,8.30
2022-11-21T12:17:25.509Z,8.40
2022-11-21T12:19:55.486Z,8.30
2022-11-21T12:22:23.883Z,8.30
2022-11-21T12:24:52.094Z,8.30
2022-11-21T12:27:29.700Z,8.20
2022-11-21T12:30:27.077Z,8.20
2022-11-21T12:33:03.548Z,8.20
2022-11-21T12:36:17.464Z,8.20
2022-11-21T12:38:59.292Z,8.20
2022-11-21T12:41:57.115Z,8.10
2022-11-21T12:44:40.445Z,8.10
2022-11-21T12:47:24.738Z,8.00
2022-11-21T12:50:22.235Z,8.00
2022-11-21T12:53:11.634Z,7.90
2022-11-21T12:55:41.285Z,7.90
2022-11-21T12:58:28.175Z,7.90
2022-11-21T13:01:20.845Z,7.90
2022-11-21T13:03:56.703Z,7.90
2022-11-21T13:06:28.352Z,7.90
2022-11-21T13:09:03.204Z,7.90
2022-11-21T13:11:58.024Z,7.90
2022-11-21T13:14:33.718Z,7.90
2022-11-21T13:17:23.504Z,8.10
2022-11-21T13:19:56.500Z,8.10
2022-11-21T13:22:53.427Z,8.20
2022-11-21T13:25:41.728Z,8.40
2022-11-21T13:28:33.533Z,8.60
2022-11-21T13:31:03.534Z,8.60
2022-11-21T13:33:54.127Z,8.70
2022-11-21T13:36:43.724Z,8.70
2022-11-21T13:39:33.898Z,8.70
2022-11-21T13:42:32.941Z,8.80
2022-11-21T13:45:24.223Z,8.70
2022-11-21T13:48:17.488Z,8.60
2022-11-21T13:51:11.304Z,8.50
2022-11-21T13:54:07.306Z,8.40
2022-11-21T13:56:40.925Z,8.40
2022-11-21T13:59:27.350Z,8.30
2022-11-21T14:02:28.116Z,8.30
2022-11-21T14:05:34.575Z,8.20
2022-11-21T14:08:19.303Z,8.20
2022-11-21T14:10:48.735Z,8.10
2022-11-21T14:13:24.767Z,8.10
2022-11-21T14:16:10.223Z,8.10
2022-11-21T14:18:40.864Z,8.10
2022-11-21T14:21:18.816Z,8.10
2022-11-21T14:23:49.386Z,8.10
2022-11-21T14:26:21.374Z,8.10
2022-11-21T14:28:49.653Z,8.10
2022-11-21T14:31:18.046Z,8.20
2022-11-21T14:33:47.588Z,8.20
2022-11-21T14:36:18.150Z,8.20
2022-11-21T14:39:07.488Z,8.20
2022-11-21T14:41:39.507Z,8.10
2022-11-21T14:44:20.014Z,8.00
2022-11-21T14:46:48.903Z,8.00
2022-11-21T14:49:29.576Z,7.90
2022-11-21T14:52:18.397Z,7.90
2022-11-21T14:55:28.110Z,7.80
2022-11-21T14:57:44.606Z,7.70
2022-11-21T15:00:43.150Z,7.70
2022-11-21T15:03:06.309Z,7.60
2022-11-21T15:08:59.378Z,7.50
2022-11-21T15:11:16.382Z,7.50
2022-11-21T15:14:12.127Z,7.40
2022-11-21T15:16:34.442Z,7.40
2022-11-21T15:19:02.795Z,7.40
2022-11-21T15:21:31.517Z,7.30
2022-11-21T15:23:59.966Z,7.30
2022-11-21T15:26:32.617Z,7.20
2022-11-21T15:29:02.508Z,7.20
2022-11-21T15:31:30.902Z,7.10
2022-11-21T15:34:33.120Z,7.10
2022-11-21T15:37:05.008Z,7.00
2022-11-21T15:39:34.662Z,7.00
2022-11-21T15:42:38.481Z,6.90
2022-11-21T15:45:24.072Z,6.80
2022-11-21T15:47:52.401Z,6.80
2022-11-21T15:50:23.588Z,6.80
2022-11-21T15:52:53.461Z,6.80
2022-11-21T15:55:23.587Z,6.70
2022-11-21T15:57:54.202Z,6.70
2022-11-21T16:00:22.946Z,6.60
2022-11-21T16:02:51.405Z,6.60
2022-11-21T16:05:19.661Z,6.60
2022-11-21T16:07:48.604Z,6.60
2022-11-21T16:10:24.403Z,6.60
2022-11-21T16:12:57.619Z,6.50
2022-11-21T16:15:26.298Z,6.50
2022-11-21T16:17:54.560Z,6.50
2022-11-21T16:20:23.137Z,6.40
2022-11-21T16:22:51.432Z,6.40
2022-11-21T16:25:19.625Z,6.40
2022-11-21T16:27:47.921Z,6.40
2022-11-21T16:30:17.893Z,6.40
2022-11-21T16:32:47.126Z,6.30
2022-11-21T16:35:15.493Z,6.30
2022-11-21T16:37:43.783Z,6.30
2022-11-21T16:40:12.481Z,6.20
2022-11-21T16:42:40.667Z,6.20
2022-11-21T16:45:10.370Z,6.20
2022-11-21T16:47:43.107Z,6.20
2022-11-21T16:50:15.817Z,6.20
2022-11-21T16:52:44.159Z,6.10
2022-11-21T16:55:12.591Z,6.10
2022-11-21T16:57:42.476Z,6.00
2022-11-21T17:00:12.394Z,6.00
2022-11-21T17:02:42.161Z,5.90
2022-11-21T17:05:11.074Z,5.90
2022-11-21T17:07:39.345Z,6.00
2022-11-21T17:10:08.691Z,5.90
2022-11-21T17:12:39.079Z,5.90
2022-11-21T17:15:10.175Z,5.90
2022-11-21T17:17:38.703Z,5.90
2022-11-21T17:20:10.728Z,5.90
2022-11-21T17:22:38.923Z,5.80
2022-11-21T17:25:07.991Z,5.70
2022-11-21T17:27:36.347Z,5.70
2022-11-21T17:30:17.441Z,5.70
2022-11-21T17:32:47.020Z,5.70
2022-11-21T17:35:17.015Z,5.70
2022-11-21T17:37:45.259Z,5.60
2022-11-21T17:40:14.482Z,5.50
2022-11-21T17:42:43.526Z,5.50
2022-11-21T17:45:12.191Z,5.40
2022-11-21T17:47:42.041Z,5.40
2022-11-21T17:50:16.184Z,5.30
2022-11-21T17:52:47.156Z,5.20
2022-11-21T17:55:15.476Z,5.20
2022-11-21T17:57:46.947Z,5.20
2022-11-21T18:00:16.714Z,5.10
2022-11-21T18:02:51.727Z,5.10
2022-11-21T18:05:23.108Z,5.00
2022-11-21T18:07:54.748Z,5.00
2022-11-21T18:10:42.274Z,5.00
2022-11-21T18:13:11.619Z,4.90
2022-11-21T18:15:42.693Z,4.90
2022-11-21T18:18:10.846Z,4.90
2022-11-21T18:20:41.977Z,4.90
2022-11-21T18:23:11.766Z,5.00
2022-11-21T18:25:40.582Z,5.00
2022-11-21T18:28:08.957Z,5.10
2022-11-21T18:30:37.365Z,5.10
2022-11-21T18:33:05.777Z,5.10
2022-11-21T18:35:34.023Z,5.10
2022-11-21T18:38:02.660Z,5.10
2022-11-21T18:40:32.402Z,5.10
2022-11-21T18:43:00.650Z,5.00
2022-11-21T18:45:28.950Z,5.00
2022-11-21T18:47:57.540Z,4.90
2022-11-21T18:50:27.920Z,4.90
2022-11-21T18:52:59.603Z,4.90
2022-11-21T18:55:28.759Z,4.80
2022-11-21T18:57:58.664Z,4.80
2022-11-21T19:00:27.112Z,4.80
2022-11-21T19:02:55.502Z,4.80
2022-11-21T19:05:24.514Z,4.70
2022-11-21T19:07:54.154Z,4.80
2022-11-21T19:10:42.804Z,4.70
2022-11-21T19:13:12.652Z,4.70
2022-11-21T19:15:42.937Z,4.70
2022-11-21T19:18:11.278Z,4.60
2022-11-21T19:20:43.183Z,4.60
2022-11-21T19:23:11.913Z,4.60
2022-11-21T19:25:40.313Z,4.60
2022-11-21T19:28:08.726Z,4.60
2022-11-21T19:30:38.921Z,4.60
2022-11-21T19:33:07.547Z,4.60
2022-11-21T19:35:39.538Z,4.60
2022-11-21T19:38:08.109Z,4.50
2022-11-21T19:40:57.438Z,4.60
2022-11-21T19:43:25.734Z,4.50
2022-11-21T19:45:58.184Z,4.60
2022-11-21T19:48:26.792Z,4.50
2022-11-21T19:50:59.360Z,4.60
2022-11-21T19:53:28.681Z,4.60
2022-11-21T19:55:57.231Z,4.60
2022-11-21T19:58:27.522Z,4.60
2022-11-21T20:01:07.581Z,4.60
2022-11-21T20:03:36.396Z,4.60
2022-11-21T20:06:06.030Z,4.50
2022-11-21T20:08:34.493Z,4.60
2022-11-21T20:11:10.372Z,4.50
2022-11-21T20:13:42.107Z,4.50
2022-11-21T20:16:18.581Z,4.50
2022-11-21T20:18:47.195Z,4.50
2022-11-21T20:21:16.349Z,4.50
2022-11-21T20:23:46.189Z,4.50
2022-11-21T20:26:15.162Z,4.50
2022-11-21T20:28:43.739Z,4.50
2022-11-21T20:31:15.416Z,4.50
2022-11-21T20:33:45.745Z,4.50
2022-11-21T20:36:18.817Z,4.50
2022-11-21T20:38:51.553Z,4.50
2022-11-21T20:41:20.571Z,4.40
2022-11-21T20:46:38.910Z,4.40
2022-11-21T20:49:07.482Z,4.40
2022-11-21T20:53:20.547Z,4.30
2022-11-21T20:54:24.286Z,4.30
2022-11-21T20:56:52.928Z,4.30
2022-11-21T20:59:21.331Z,4.30
2022-11-21T21:01:51.528Z,4.30
2022-11-21T21:04:20.169Z,4.20
2022-11-21T21:06:48.557Z,4.20
2022-11-21T21:09:16.931Z,4.20
2022-11-21T21:11:52.511Z,4.20
2022-11-21T21:14:21.882Z,4.20
2022-11-21T21:16:51.928Z,4.10
2022-11-21T21:19:23.251Z,4.10
2022-11-21T21:21:51.678Z,4.10
2022-11-21T21:24:20.297Z,4.10
2022-11-21T21:26:50.148Z,4.10
2022-11-21T21:29:20.697Z,4.00
2022-11-21T21:31:51.906Z,4.00
2022-11-21T21:34:23.680Z,4.00
2022-11-21T21:36:52.677Z,3.90
2022-11-21T21:39:21.229Z,3.80
2022-11-21T21:41:49.542Z,3.80
2022-11-21T21:44:18.120Z,3.80
2022-11-21T21:46:46.949Z,3.80
2022-11-21T21:49:15.966Z,3.80
2022-11-21T21:51:45.873Z,3.80
2022-11-21T21:54:19.866Z,3.70
2022-11-21T21:56:48.604Z,3.70
2022-11-21T21:59:18.246Z,3.70
2022-11-21T22:01:47.041Z,3.70
2022-11-21T22:04:15.703Z,3.70
2022-11-21T22:06:45.586Z,3.60
2022-11-21T22:09:13.769Z,3.60
2022-11-21T22:11:42.046Z,3.60
2022-11-21T22:14:13.952Z,3.60
2022-11-21T22:16:52.052Z,3.60
2022-11-21T22:19:26.412Z,3.60
2022-11-21T22:21:56.530Z,3.50
2022-11-21T22:24:26.441Z,3.40
2022-11-21T22:26:55.392Z,3.40
2022-11-21T22:29:24.009Z,3.30
2022-11-21T22:31:52.348Z,3.30
2022-11-21T22:34:23.168Z,3.30
2022-11-21T22:36:51.761Z,3.20
2022-11-21T22:39:21.709Z,3.10
2022-11-21T22:41:50.149Z,3.10
2022-11-21T22:44:19.332Z,3.10
2022-11-21T22:46:49.591Z,3.00
2022-11-21T22:49:18.013Z,3.00
2022-11-21T22:51:53.760Z,3.00
2022-11-21T22:54:24.852Z,3.00
2022-11-21T22:56:53.493Z,3.00
2022-11-21T22:59:22.001Z,3.10
2022-11-21T23:01:50.214Z,3.10
2022-11-21T23:04:18.513Z,3.10
2022-11-21T23:06:46.738Z,3.10
2022-11-21T23:09:16.895Z,3.10
2022-11-21T23:12:01.663Z,3.10
2022-11-21T23:14:32.519Z,3.20
2022-11-21T23:17:00.862Z,3.20
2022-11-21T23:19:30.187Z,3.20
2022-11-21T23:22:01.045Z,3.20
2022-11-21T23:24:29.434Z,3.30
2022-11-21T23:26:59.511Z,3.30
2022-11-21T23:29:35.968Z,3.30
2022-11-21T23:32:04.495Z,3.30
2022-11-21T23:34:36.004Z,3.30
2022-11-21T23:37:04.644Z,3.40
2022-11-21T23:39:33.406Z,3.40
2022-11-21T23:42:03.255Z,3.40
2022-11-21T23:44:31.524Z,3.40
2022-11-21T23:47:00.421Z,3.40
2022-11-21T23:49:31.678Z,3.50
2022-11-21T23:52:00.300Z,3.40
2022-11-21T23:54:33.765Z,3.40
2022-11-21T23:57:03.833Z,3.50
2022-11-21T23:59:32.484Z,3.60
